sensor_id;sensor_type;location;lat;lon;timestamp;temperature;humidity
19025;DHT22;9645;51.448;6.260;2024-03-17T00:00:07;4.90;99.90
19025;DHT22;9645;51.448;6.260;2024-03-17T00:02:39;5.00;99.90
19025;DHT22;9645;51.448;6.260;2024-03-17T00:05:07;5.00;99.90
19025;DHT22;9645;51.448;6.260;2024-03-17T00:07:35;5.00;99.90
19025;DHT22;9645;51.448;6.260;2024-03-17T00:10:01;5.10;99.90
19025;DHT22;9645;51.448;6.260;2024-03-17T00:12:28;5.10;99.90
19025;DHT22;9645;51.448;6.260;2024-03-17T00:14:54;5.20;99.90
19025;DHT22;9645;51.448;6.260;2024-03-17T00:17:21;5.20;99.90
19025;DHT22;9645;51.448;6.260;2024-03-17T00:19:48;5.30;99.90
19025;DHT22;9645;51.448;6.260;2024-03-17T00:22:15;5.30;99.90
19025;DHT22;9645;51.448;6.260;2024-03-17T00:24:43;5.30;99.90
19025;DHT22;9645;51.448;6.260;2024-03-17T00:27:11;5.30;99.90
19025;DHT22;9645;51.448;6.260;2024-03-17T00:29:38;5.40;99.90
19025;DHT22;9645;51.448;6.260;2024-03-17T00:32:07;5.40;99.90
19025;DHT22;9645;51.448;6.260;2024-03-17T00:34:37;5.40;99.90
19025;DHT22;9645;51.448;6.260;2024-03-17T00:37:04;5.50;99.90
19025;DHT22;9645;51.448;6.260;2024-03-17T00:39:31;5.50;99.90
19025;DHT22;9645;51.448;6.260;2024-03-17T00:42:00;5.50;99.90
19025;DHT22;9645;51.448;6.260;2024-03-17T00:44:27;5.50;99.90
19025;DHT22;9645;51.448;6.260;2024-03-17T00:46:53;5.50;99.90
19025;DHT22;9645;51.448;6.260;2024-03-17T00:49:20;5.50;99.90
19025;DHT22;9645;51.448;6.260;2024-03-17T00:51:46;5.50;99.90
19025;DHT22;9645;51.448;6.260;2024-03-17T00:54:15;5.50;99.90
19025;DHT22;9645;51.448;6.260;2024-03-17T00:56:43;5.50;99.90
19025;DHT22;9645;51.448;6.260;2024-03-17T00:59:11;5.40;99.90
19025;DHT22;9645;51.448;6.260;2024-03-17T01:01:37;5.40;99.90
19025;DHT22;9645;51.448;6.260;2024-03-17T01:04:04;5.40;99.90
19025;DHT22;9645;51.448;6.260;2024-03-17T01:06:31;5.40;99.90
19025;DHT22;9645;51.448;6.260;2024-03-17T01:08:59;5.40;99.90
19025;DHT22;9645;51.448;6.260;2024-03-17T01:11:25;5.30;99.90
19025;DHT22;9645;51.448;6.260;2024-03-17T01:13:53;5.20;99.90
19025;DHT22;9645;51.448;6.260;2024-03-17T01:16:23;5.20;99.90
19025;DHT22;9645;51.448;6.260;2024-03-17T01:18:50;5.10;99.90
19025;DHT22;9645;51.448;6.260;2024-03-17T01:21:16;5.00;99.90
19025;DHT22;9645;51.448;6.260;2024-03-17T01:23:42;5.00;99.90
19025;DHT22;9645;51.448;6.260;2024-03-17T01:26:08;5.00;99.90
19025;DHT22;9645;51.448;6.260;2024-03-17T01:28:36;5.00;99.90
19025;DHT22;9645;51.448;6.260;2024-03-17T01:31:05;5.00;99.90
19025;DHT22;9645;51.448;6.260;2024-03-17T01:33:34;4.90;99.90
19025;DHT22;9645;51.448;6.260;2024-03-17T01:36:00;4.90;99.90
19025;DHT22;9645;51.448;6.260;2024-03-17T01:38:27;4.90;99.90
19025;DHT22;9645;51.448;6.260;2024-03-17T01:40:53;4.90;99.90
19025;DHT22;9645;51.448;6.260;2024-03-17T01:43:20;4.90;99.90
19025;DHT22;9645;51.448;6.260;2024-03-17T01:45:46;4.80;99.90
19025;DHT22;9645;51.448;6.260;2024-03-17T01:48:15;4.80;99.90
19025;DHT22;9645;51.448;6.260;2024-03-17T01:50:43;4.80;99.90
19025;DHT22;9645;51.448;6.260;2024-03-17T01:53:12;4.70;99.90
19025;DHT22;9645;51.448;6.260;2024-03-17T01:55:40;4.70;99.90
19025;DHT22;9645;51.448;6.260;2024-03-17T01:58:09;4.70;99.90
19025;DHT22;9645;51.448;6.260;2024-03-17T02:00:36;4.70;99.90
19025;DHT22;9645;51.448;6.260;2024-03-17T02:03:04;4.70;99.90
19025;DHT22;9645;51.448;6.260;2024-03-17T02:05:30;4.70;99.90
19025;DHT22;9645;51.448;6.260;2024-03-17T02:07:58;4.70;99.90
19025;DHT22;9645;51.448;6.260;2024-03-17T02:10:24;4.70;99.90
19025;DHT22;9645;51.448;6.260;2024-03-17T02:12:52;4.80;99.90
19025;DHT22;9645;51.448;6.260;2024-03-17T02:15:18;4.70;99.90
19025;DHT22;9645;51.448;6.260;2024-03-17T02:17:46;4.80;99.90
19025;DHT22;9645;51.448;6.260;2024-03-17T02:20:12;4.80;99.90
19025;DHT22;9645;51.448;6.260;2024-03-17T02:22:56;4.80;99.90
19025;DHT22;9645;51.448;6.260;2024-03-17T02:25:28;5.70;99.90
19025;DHT22;9645;51.448;6.260;2024-03-17T02:27:55;4.80;99.90
19025;DHT22;9645;51.448;6.260;2024-03-17T02:30:23;4.70;99.90
19025;DHT22;9645;51.448;6.260;2024-03-17T02:32:52;4.70;99.90
19025;DHT22;9645;51.448;6.260;2024-03-17T02:35:18;4.70;99.90
19025;DHT22;9645;51.448;6.260;2024-03-17T02:37:47;5.10;99.90
19025;DHT22;9645;51.448;6.260;2024-03-17T02:40:15;4.60;99.90
19025;DHT22;9645;51.448;6.260;2024-03-17T02:42:46;4.60;99.90
19025;DHT22;9645;51.448;6.260;2024-03-17T02:45:16;4.50;99.90
19025;DHT22;9645;51.448;6.260;2024-03-17T02:47:45;4.60;99.90
19025;DHT22;9645;51.448;6.260;2024-03-17T02:50:14;4.60;99.90
19025;DHT22;9645;51.448;6.260;2024-03-17T02:52:42;4.50;99.90
19025;DHT22;9645;51.448;6.260;2024-03-17T02:57:58;4.50;99.90
19025;DHT22;9645;51.448;6.260;2024-03-17T03:00:25;4.50;99.90
19025;DHT22;9645;51.448;6.260;2024-03-17T03:02:52;4.60;99.90
19025;DHT22;9645;51.448;6.260;2024-03-17T03:05:21;5.00;99.90
19025;DHT22;9645;51.448;6.260;2024-03-17T03:07:48;4.50;99.90
19025;DHT22;9645;51.448;6.260;2024-03-17T03:10:15;4.80;99.90
19025;DHT22;9645;51.448;6.260;2024-03-17T03:12:42;4.40;99.90
19025;DHT22;9645;51.448;6.260;2024-03-17T03:15:11;5.40;99.90
19025;DHT22;9645;51.448;6.260;2024-03-17T03:17:38;4.50;99.90
19025;DHT22;9645;51.448;6.260;2024-03-17T03:20:06;4.50;99.90
19025;DHT22;9645;51.448;6.260;2024-03-17T03:22:35;4.50;99.90
19025;DHT22;9645;51.448;6.260;2024-03-17T03:25:02;4.50;99.90
19025;DHT22;9645;51.448;6.260;2024-03-17T03:27:29;4.60;99.90
19025;DHT22;9645;51.448;6.260;2024-03-17T03:29:57;4.50;99.90
19025;DHT22;9645;51.448;6.260;2024-03-17T03:32:27;4.80;99.90
19025;DHT22;9645;51.448;6.260;2024-03-17T03:34:54;4.80;99.90
19025;DHT22;9645;51.448;6.260;2024-03-17T03:37:22;4.60;99.90
19025;DHT22;9645;51.448;6.260;2024-03-17T03:39:52;4.60;99.90
19025;DHT22;9645;51.448;6.260;2024-03-17T03:42:19;5.20;99.90
19025;DHT22;9645;51.448;6.260;2024-03-17T03:44:47;4.60;99.90
19025;DHT22;9645;51.448;6.260;2024-03-17T03:47:14;4.60;99.90
19025;DHT22;9645;51.448;6.260;2024-03-17T03:49:43;5.60;99.90
19025;DHT22;9645;51.448;6.260;2024-03-17T03:52:11;4.70;99.90
19025;DHT22;9645;51.448;6.260;2024-03-17T03:54:38;5.10;99.90
19025;DHT22;9645;51.448;6.260;2024-03-17T03:57:07;4.70;99.90
19025;DHT22;9645;51.448;6.260;2024-03-17T03:59:42;4.80;99.90
19025;DHT22;9645;51.448;6.260;2024-03-17T04:02:09;4.90;99.90
19025;DHT22;9645;51.448;6.260;2024-03-17T04:04:43;5.10;99.90
19025;DHT22;9645;51.448;6.260;2024-03-17T04:07:12;5.10;99.90
19025;DHT22;9645;51.448;6.260;2024-03-17T04:09:39;5.40;99.90
19025;DHT22;9645;51.448;6.260;2024-03-17T04:12:06;5.10;99.90
19025;DHT22;9645;51.448;6.260;2024-03-17T04:14:33;5.10;99.90
19025;DHT22;9645;51.448;6.260;2024-03-17T04:17:03;5.20;99.90
19025;DHT22;9645;51.448;6.260;2024-03-17T04:19:31;5.40;99.90
19025;DHT22;9645;51.448;6.260;2024-03-17T04:22:05;5.60;99.90
19025;DHT22;9645;51.448;6.260;2024-03-17T04:24:32;5.30;99.90
19025;DHT22;9645;51.448;6.260;2024-03-17T04:27:00;5.30;99.90
19025;DHT22;9645;51.448;6.260;2024-03-17T04:29:30;5.40;99.90
19025;DHT22;9645;51.448;6.260;2024-03-17T04:31:57;5.90;99.90
19025;DHT22;9645;51.448;6.260;2024-03-17T04:34:23;5.40;99.90
19025;DHT22;9645;51.448;6.260;2024-03-17T04:36:52;5.40;99.90
19025;DHT22;9645;51.448;6.260;2024-03-17T04:39:22;5.40;99.90
19025;DHT22;9645;51.448;6.260;2024-03-17T04:41:50;5.40;99.90
19025;DHT22;9645;51.448;6.260;2024-03-17T04:44:20;6.00;99.90
19025;DHT22;9645;51.448;6.260;2024-03-17T04:46:49;5.60;99.90
19025;DHT22;9645;51.448;6.260;2024-03-17T04:49:17;5.40;99.90
19025;DHT22;9645;51.448;6.260;2024-03-17T04:51:44;5.40;99.90
19025;DHT22;9645;51.448;6.260;2024-03-17T04:54:11;5.80;99.90
19025;DHT22;9645;51.448;6.260;2024-03-17T04:56:40;5.40;99.90
19025;DHT22;9645;51.448;6.260;2024-03-17T04:59:07;5.40;99.90
19025;DHT22;9645;51.448;6.260;2024-03-17T05:01:52;5.40;99.90
19025;DHT22;9645;51.448;6.260;2024-03-17T05:04:19;5.40;99.90
19025;DHT22;9645;51.448;6.260;2024-03-17T05:06:48;5.30;99.90
19025;DHT22;9645;51.448;6.260;2024-03-17T05:09:17;5.40;99.90
19025;DHT22;9645;51.448;6.260;2024-03-17T05:11:46;5.40;99.90
19025;DHT22;9645;51.448;6.260;2024-03-17T05:14:29;5.30;99.90
19025;DHT22;9645;51.448;6.260;2024-03-17T05:16:56;5.30;99.90
19025;DHT22;9645;51.448;6.260;2024-03-17T05:19:25;5.30;99.90
19025;DHT22;9645;51.448;6.260;2024-03-17T05:25:16;4.80;99.90
19025;DHT22;9645;51.448;6.260;2024-03-17T05:27:50;5.00;99.90
19025;DHT22;9645;51.448;6.260;2024-03-17T05:30:36;5.00;99.90
19025;DHT22;9645;51.448;6.260;2024-03-17T05:33:39;4.20;99.90
19025;DHT22;9645;51.448;6.260;2024-03-17T05:36:20;4.90;99.90
19025;DHT22;9645;51.448;6.260;2024-03-17T05:38:47;4.90;99.90
19025;DHT22;9645;51.448;6.260;2024-03-17T05:41:14;4.90;99.90
19025;DHT22;9645;51.448;6.260;2024-03-17T05:43:42;4.90;99.90
19025;DHT22;9645;51.448;6.260;2024-03-17T05:46:12;4.90;99.90
19025;DHT22;9645;51.448;6.260;2024-03-17T05:48:40;4.90;99.90
19025;DHT22;9645;51.448;6.260;2024-03-17T05:51:08;5.00;99.90
19025;DHT22;9645;51.448;6.260;2024-03-17T05:53:36;5.00;99.90
19025;DHT22;9645;51.448;6.260;2024-03-17T05:56:06;4.90;99.90
19025;DHT22;9645;51.448;6.260;2024-03-17T05:58:35;5.00;99.90
19025;DHT22;9645;51.448;6.260;2024-03-17T06:01:05;5.10;99.90
19025;DHT22;9645;51.448;6.260;2024-03-17T06:03:39;5.10;99.90
19025;DHT22;9645;51.448;6.260;2024-03-17T06:06:22;5.20;99.90
19025;DHT22;9645;51.448;6.260;2024-03-17T06:08:49;5.30;99.90
19025;DHT22;9645;51.448;6.260;2024-03-17T06:11:20;5.30;99.90
19025;DHT22;9645;51.448;6.260;2024-03-17T06:13:47;5.40;99.90
19025;DHT22;9645;51.448;6.260;2024-03-17T06:16:16;5.40;99.90
19025;DHT22;9645;51.448;6.260;2024-03-17T06:18:43;5.40;99.90
19025;DHT22;9645;51.448;6.260;2024-03-17T06:21:11;5.50;99.90
19025;DHT22;9645;51.448;6.260;2024-03-17T06:23:39;5.60;99.90
19025;DHT22;9645;51.448;6.260;2024-03-17T06:26:06;5.60;99.90
19025;DHT22;9645;51.448;6.260;2024-03-17T06:28:33;5.70;99.90
19025;DHT22;9645;51.448;6.260;2024-03-17T06:31:01;5.80;99.90
19025;DHT22;9645;51.448;6.260;2024-03-17T06:33:34;5.90;99.90
19025;DHT22;9645;51.448;6.260;2024-03-17T06:36:01;5.90;99.90
19025;DHT22;9645;51.448;6.260;2024-03-17T06:38:30;6.10;99.90
19025;DHT22;9645;51.448;6.260;2024-03-17T06:40:57;6.80;99.90
19025;DHT22;9645;51.448;6.260;2024-03-17T06:43:24;9.50;99.90
19025;DHT22;9645;51.448;6.260;2024-03-17T06:45:56;9.70;99.90
19025;DHT22;9645;51.448;6.260;2024-03-17T06:48:24;11.20;1.00
19025;DHT22;9645;51.448;6.260;2024-03-17T06:50:54;12.00;95.20
19025;DHT22;9645;51.448;6.260;2024-03-17T06:53:21;11.70;99.90
19025;DHT22;9645;51.448;6.260;2024-03-17T06:55:54;10.90;99.90
19025;DHT22;9645;51.448;6.260;2024-03-17T06:58:23;9.80;1.00
19025;DHT22;9645;51.448;6.260;2024-03-17T07:00:53;8.90;1.00
19025;DHT22;9645;51.448;6.260;2024-03-17T07:03:23;8.20;1.00
19025;DHT22;9645;51.448;6.260;2024-03-17T07:05:55;7.60;1.00
19025;DHT22;9645;51.448;6.260;2024-03-17T07:08:24;7.30;99.90
19025;DHT22;9645;51.448;6.260;2024-03-17T07:10:58;7.20;1.00
19025;DHT22;9645;51.448;6.260;2024-03-17T07:13:28;7.10;99.90
19025;DHT22;9645;51.448;6.260;2024-03-17T07:15:55;7.20;99.90
19025;DHT22;9645;51.448;6.260;2024-03-17T07:18:22;7.20;99.90
19025;DHT22;9645;51.448;6.260;2024-03-17T07:20:51;7.30;99.90
19025;DHT22;9645;51.448;6.260;2024-03-17T07:23:20;7.50;1.00
19025;DHT22;9645;51.448;6.260;2024-03-17T07:25:53;7.80;34.50
19025;DHT22;9645;51.448;6.260;2024-03-17T07:28:21;8.00;99.90
19025;DHT22;9645;51.448;6.260;2024-03-17T07:30:52;8.40;99.90
19025;DHT22;9645;51.448;6.260;2024-03-17T07:33:20;8.60;1.00
19025;DHT22;9645;51.448;6.260;2024-03-17T07:35:48;8.90;1.00
19025;DHT22;9645;51.448;6.260;2024-03-17T07:38:15;9.10;59.10
19025;DHT22;9645;51.448;6.260;2024-03-17T07:40:44;9.10;1.00
19025;DHT22;9645;51.448;6.260;2024-03-17T07:43:15;9.10;1.00
19025;DHT22;9645;51.448;6.260;2024-03-17T07:45:42;9.10;1.00
19025;DHT22;9645;51.448;6.260;2024-03-17T07:48:11;9.00;19.90
19025;DHT22;9645;51.448;6.260;2024-03-17T07:50:38;9.10;91.40
19025;DHT22;9645;51.448;6.260;2024-03-17T07:53:07;9.20;99.90
19025;DHT22;9645;51.448;6.260;2024-03-17T07:55:34;9.50;1.00
19025;DHT22;9645;51.448;6.260;2024-03-17T07:58:04;10.20;99.90
19025;DHT22;9645;51.448;6.260;2024-03-17T08:00:32;11.10;99.90
19025;DHT22;9645;51.448;6.260;2024-03-17T08:02:59;12.60;96.80
19025;DHT22;9645;51.448;6.260;2024-03-17T08:05:26;14.10;1.00
19025;DHT22;9645;51.448;6.260;2024-03-17T08:07:53;14.40;1.00
19025;DHT22;9645;51.448;6.260;2024-03-17T08:10:20;14.30;1.00
19025;DHT22;9645;51.448;6.260;2024-03-17T08:12:47;13.90;1.00
19025;DHT22;9645;51.448;6.260;2024-03-17T08:15:15;13.40;1.00
19025;DHT22;9645;51.448;6.260;2024-03-17T08:17:42;12.90;1.00
19025;DHT22;9645;51.448;6.260;2024-03-17T08:20:13;12.70;1.00
19025;DHT22;9645;51.448;6.260;2024-03-17T08:22:44;12.50;1.00
19025;DHT22;9645;51.448;6.260;2024-03-17T08:25:11;12.40;1.00
19025;DHT22;9645;51.448;6.260;2024-03-17T08:27:38;12.50;1.00
19025;DHT22;9645;51.448;6.260;2024-03-17T08:30:08;12.70;1.00
19025;DHT22;9645;51.448;6.260;2024-03-17T08:32:37;12.40;1.00
19025;DHT22;9645;51.448;6.260;2024-03-17T08:35:04;12.10;1.00
19025;DHT22;9645;51.448;6.260;2024-03-17T08:37:33;11.90;67.20
19025;DHT22;9645;51.448;6.260;2024-03-17T08:40:04;11.70;7.30
19025;DHT22;9645;51.448;6.260;2024-03-17T08:42:33;11.50;31.20
19025;DHT22;9645;51.448;6.260;2024-03-17T08:45:00;11.20;99.90
19025;DHT22;9645;51.448;6.260;2024-03-17T08:47:27;11.10;99.90
19025;DHT22;9645;51.448;6.260;2024-03-17T08:49:57;11.00;99.90
19025;DHT22;9645;51.448;6.260;2024-03-17T08:52:29;10.80;1.00
19025;DHT22;9645;51.448;6.260;2024-03-17T08:54:57;10.60;1.00
19025;DHT22;9645;51.448;6.260;2024-03-17T08:57:24;10.40;1.00
19025;DHT22;9645;51.448;6.260;2024-03-17T08:59:52;10.40;1.00
19025;DHT22;9645;51.448;6.260;2024-03-17T09:02:19;10.40;99.90
19025;DHT22;9645;51.448;6.260;2024-03-17T09:04:47;10.50;99.90
19025;DHT22;9645;51.448;6.260;2024-03-17T09:07:15;10.60;1.00
19025;DHT22;9645;51.448;6.260;2024-03-17T09:09:42;10.70;15.00
19025;DHT22;9645;51.448;6.260;2024-03-17T09:12:09;10.80;1.00
19025;DHT22;9645;51.448;6.260;2024-03-17T09:14:36;10.90;1.00
19025;DHT22;9645;51.448;6.260;2024-03-17T09:17:03;10.90;1.00
19025;DHT22;9645;51.448;6.260;2024-03-17T09:19:30;10.80;1.00
19025;DHT22;9645;51.448;6.260;2024-03-17T09:21:58;10.70;1.00
19025;DHT22;9645;51.448;6.260;2024-03-17T09:24:27;10.60;1.00
19025;DHT22;9645;51.448;6.260;2024-03-17T09:26:54;10.50;99.90
19025;DHT22;9645;51.448;6.260;2024-03-17T09:29:21;10.40;1.00
19025;DHT22;9645;51.448;6.260;2024-03-17T09:31:49;10.50;99.90
19025;DHT22;9645;51.448;6.260;2024-03-17T09:34:17;10.40;1.00
19025;DHT22;9645;51.448;6.260;2024-03-17T09:36:44;10.40;1.00
19025;DHT22;9645;51.448;6.260;2024-03-17T09:39:11;10.50;1.00
19025;DHT22;9645;51.448;6.260;2024-03-17T09:41:41;10.60;1.00
19025;DHT22;9645;51.448;6.260;2024-03-17T09:44:12;10.90;99.90
19025;DHT22;9645;51.448;6.260;2024-03-17T09:46:39;10.80;23.70
19025;DHT22;9645;51.448;6.260;2024-03-17T09:49:13;11.00;99.90
19025;DHT22;9645;51.448;6.260;2024-03-17T09:51:41;11.10;1.00
19025;DHT22;9645;51.448;6.260;2024-03-17T09:54:16;11.50;99.90
19025;DHT22;9645;51.448;6.260;2024-03-17T09:56:45;12.00;1.00
19025;DHT22;9645;51.448;6.260;2024-03-17T09:59:13;12.50;1.00
19025;DHT22;9645;51.448;6.260;2024-03-17T10:01:40;12.80;99.90
19025;DHT22;9645;51.448;6.260;2024-03-17T10:04:08;13.30;99.90
19025;DHT22;9645;51.448;6.260;2024-03-17T10:06:44;13.80;1.00
19025;DHT22;9645;51.448;6.260;2024-03-17T10:09:16;14.60;1.00
19025;DHT22;9645;51.448;6.260;2024-03-17T10:11:48;15.30;1.00
19025;DHT22;9645;51.448;6.260;2024-03-17T10:14:17;15.70;1.00
19025;DHT22;9645;51.448;6.260;2024-03-17T10:16:44;16.00;1.00
19025;DHT22;9645;51.448;6.260;2024-03-17T10:19:12;16.00;99.90
19025;DHT22;9645;51.448;6.260;2024-03-17T10:21:41;15.70;99.90
19025;DHT22;9645;51.448;6.260;2024-03-17T10:24:11;15.40;1.00
19025;DHT22;9645;51.448;6.260;2024-03-17T10:26:42;15.00;1.00
19025;DHT22;9645;51.448;6.260;2024-03-17T10:29:22;14.70;1.00
19025;DHT22;9645;51.448;6.260;2024-03-17T10:31:50;14.20;1.00
19025;DHT22;9645;51.448;6.260;2024-03-17T10:34:18;13.90;1.00
19025;DHT22;9645;51.448;6.260;2024-03-17T10:36:45;13.70;1.00
19025;DHT22;9645;51.448;6.260;2024-03-17T10:39:26;13.60;1.00
19025;DHT22;9645;51.448;6.260;2024-03-17T10:41:59;13.40;1.00
19025;DHT22;9645;51.448;6.260;2024-03-17T10:44:28;13.30;1.00
19025;DHT22;9645;51.448;6.260;2024-03-17T10:46:56;13.30;1.00
19025;DHT22;9645;51.448;6.260;2024-03-17T10:49:27;13.30;1.00
19025;DHT22;9645;51.448;6.260;2024-03-17T10:51:58;13.30;1.00
19025;DHT22;9645;51.448;6.260;2024-03-17T10:54:27;13.30;13.70
19025;DHT22;9645;51.448;6.260;2024-03-17T10:56:56;13.30;1.00
19025;DHT22;9645;51.448;6.260;2024-03-17T10:59:32;13.40;43.70
19025;DHT22;9645;51.448;6.260;2024-03-17T11:02:02;13.50;1.00
19025;DHT22;9645;51.448;6.260;2024-03-17T11:04:31;13.50;1.00
19025;DHT22;9645;51.448;6.260;2024-03-17T11:06:59;13.50;1.00
19025;DHT22;9645;51.448;6.260;2024-03-17T11:09:27;13.50;1.00
19025;DHT22;9645;51.448;6.260;2024-03-17T11:11:55;13.60;1.00
19025;DHT22;9645;51.448;6.260;2024-03-17T11:14:22;13.80;1.00
19025;DHT22;9645;51.448;6.260;2024-03-17T11:16:51;13.80;1.00
19025;DHT22;9645;51.448;6.260;2024-03-17T11:19:19;13.90;1.00
19025;DHT22;9645;51.448;6.260;2024-03-17T11:21:46;14.00;1.00
19025;DHT22;9645;51.448;6.260;2024-03-17T11:24:20;14.10;1.00
19025;DHT22;9645;51.448;6.260;2024-03-17T11:26:47;14.10;1.00
19025;DHT22;9645;51.448;6.260;2024-03-17T11:29:27;13.90;1.00
19025;DHT22;9645;51.448;6.260;2024-03-17T11:31:56;14.10;1.00
19025;DHT22;9645;51.448;6.260;2024-03-17T11:34:31;13.80;20.00
19025;DHT22;9645;51.448;6.260;2024-03-17T11:36:57;13.70;11.40
19025;DHT22;9645;51.448;6.260;2024-03-17T11:39:46;13.70;32.30
19025;DHT22;9645;51.448;6.260;2024-03-17T11:42:13;13.80;8.30
19025;DHT22;9645;51.448;6.260;2024-03-17T11:44:43;13.90;1.00
19025;DHT22;9645;51.448;6.260;2024-03-17T11:47:10;14.00;1.00
19025;DHT22;9645;51.448;6.260;2024-03-17T11:49:38;14.00;1.00
19025;DHT22;9645;51.448;6.260;2024-03-17T11:52:10;14.10;99.90
19025;DHT22;9645;51.448;6.260;2024-03-17T11:54:40;14.20;1.00
19025;DHT22;9645;51.448;6.260;2024-03-17T11:57:09;14.20;1.00
19025;DHT22;9645;51.448;6.260;2024-03-17T11:59:36;14.20;1.00
19025;DHT22;9645;51.448;6.260;2024-03-17T12:02:14;14.10;1.00
19025;DHT22;9645;51.448;6.260;2024-03-17T12:04:45;14.10;1.80
19025;DHT22;9645;51.448;6.260;2024-03-17T12:07:12;14.10;1.00
19025;DHT22;9645;51.448;6.260;2024-03-17T12:09:41;14.10;1.00
19025;DHT22;9645;51.448;6.260;2024-03-17T12:12:19;13.90;1.00
19025;DHT22;9645;51.448;6.260;2024-03-17T12:14:50;13.90;91.30
19025;DHT22;9645;51.448;6.260;2024-03-17T12:17:22;13.90;95.50
19025;DHT22;9645;51.448;6.260;2024-03-17T12:19:50;13.80;99.90
19025;DHT22;9645;51.448;6.260;2024-03-17T12:22:18;13.90;99.90
19025;DHT22;9645;51.448;6.260;2024-03-17T12:24:48;13.90;99.90
19025;DHT22;9645;51.448;6.260;2024-03-17T12:27:18;13.90;99.90
19025;DHT22;9645;51.448;6.260;2024-03-17T12:29:44;14.00;99.90
19025;DHT22;9645;51.448;6.260;2024-03-17T12:32:14;14.10;99.90
19025;DHT22;9645;51.448;6.260;2024-03-17T12:34:43;14.10;99.90
19025;DHT22;9645;51.448;6.260;2024-03-17T12:37:16;14.30;51.20
19025;DHT22;9645;51.448;6.260;2024-03-17T12:39:44;14.30;1.00
19025;DHT22;9645;51.448;6.260;2024-03-17T12:42:15;14.20;1.00
19025;DHT22;9645;51.448;6.260;2024-03-17T12:44:48;14.20;1.00
19025;DHT22;9645;51.448;6.260;2024-03-17T12:47:16;14.20;1.00
19025;DHT22;9645;51.448;6.260;2024-03-17T12:49:46;14.10;1.00
19025;DHT22;9645;51.448;6.260;2024-03-17T12:52:21;14.00;1.00
19025;DHT22;9645;51.448;6.260;2024-03-17T12:54:58;14.00;1.00
19025;DHT22;9645;51.448;6.260;2024-03-17T12:57:39;13.90;1.00
19025;DHT22;9645;51.448;6.260;2024-03-17T13:00:24;13.90;22.20
19025;DHT22;9645;51.448;6.260;2024-03-17T13:03:01;13.90;99.90
19025;DHT22;9645;51.448;6.260;2024-03-17T13:05:33;14.00;90.90
19025;DHT22;9645;51.448;6.260;2024-03-17T13:08:02;13.90;2.60
19025;DHT22;9645;51.448;6.260;2024-03-17T13:10:30;14.10;96.30
19025;DHT22;9645;51.448;6.260;2024-03-17T13:13:01;14.00;1.00
19025;DHT22;9645;51.448;6.260;2024-03-17T13:15:30;14.00;1.00
19025;DHT22;9645;51.448;6.260;2024-03-17T13:17:58;13.90;42.70
19025;DHT22;9645;51.448;6.260;2024-03-17T13:20:46;13.90;21.60
19025;DHT22;9645;51.448;6.260;2024-03-17T13:23:19;13.90;17.00
19025;DHT22;9645;51.448;6.260;2024-03-17T13:25:47;13.80;99.90
19025;DHT22;9645;51.448;6.260;2024-03-17T13:28:15;13.80;98.20
19025;DHT22;9645;51.448;6.260;2024-03-17T13:30:42;13.90;99.90
19025;DHT22;9645;51.448;6.260;2024-03-17T13:33:10;14.00;95.50
19025;DHT22;9645;51.448;6.260;2024-03-17T13:35:38;14.10;98.70
19025;DHT22;9645;51.448;6.260;2024-03-17T13:38:09;14.10;24.90
19025;DHT22;9645;51.448;6.260;2024-03-17T13:40:39;14.20;21.30
19025;DHT22;9645;51.448;6.260;2024-03-17T13:43:11;14.20;1.00
19025;DHT22;9645;51.448;6.260;2024-03-17T13:45:40;14.10;42.80
19025;DHT22;9645;51.448;6.260;2024-03-17T13:48:08;14.10;99.90
19025;DHT22;9645;51.448;6.260;2024-03-17T13:50:37;14.10;99.90
19025;DHT22;9645;51.448;6.260;2024-03-17T13:53:05;14.10;99.90
19025;DHT22;9645;51.448;6.260;2024-03-17T13:55:33;14.10;99.90
19025;DHT22;9645;51.448;6.260;2024-03-17T13:58:02;14.10;53.40
19025;DHT22;9645;51.448;6.260;2024-03-17T14:00:30;14.10;73.40
19025;DHT22;9645;51.448;6.260;2024-03-17T14:03:00;14.20;61.40
19025;DHT22;9645;51.448;6.260;2024-03-17T14:05:28;14.20;8.60
19025;DHT22;9645;51.448;6.260;2024-03-17T14:07:55;14.30;24.50
19025;DHT22;9645;51.448;6.260;2024-03-17T14:10:25;14.20;99.90
19025;DHT22;9645;51.448;6.260;2024-03-17T14:12:53;14.30;99.90
19025;DHT22;9645;51.448;6.260;2024-03-17T14:15:22;14.50;94.30
19025;DHT22;9645;51.448;6.260;2024-03-17T14:20:25;14.60;61.50
19025;DHT22;9645;51.448;6.260;2024-03-17T14:22:52;14.70;14.30
19025;DHT22;9645;51.448;6.260;2024-03-17T14:25:23;14.90;1.00
19025;DHT22;9645;51.448;6.260;2024-03-17T14:27:52;15.00;1.00
19025;DHT22;9645;51.448;6.260;2024-03-17T14:30:19;15.10;1.00
19025;DHT22;9645;51.448;6.260;2024-03-17T14:32:47;15.20;1.00
19025;DHT22;9645;51.448;6.260;2024-03-17T14:35:15;15.20;1.00
19025;DHT22;9645;51.448;6.260;2024-03-17T14:37:42;15.00;1.00
19025;DHT22;9645;51.448;6.260;2024-03-17T14:40:13;15.50;1.00
19025;DHT22;9645;51.448;6.260;2024-03-17T14:42:46;15.40;1.00
19025;DHT22;9645;51.448;6.260;2024-03-17T14:45:14;16.10;1.00
19025;DHT22;9645;51.448;6.260;2024-03-17T14:47:41;16.50;1.00
19025;DHT22;9645;51.448;6.260;2024-03-17T14:50:10;16.70;1.00
19025;DHT22;9645;51.448;6.260;2024-03-17T14:52:38;16.80;1.00
19025;DHT22;9645;51.448;6.260;2024-03-17T14:55:06;17.10;1.00
19025;DHT22;9645;51.448;6.260;2024-03-17T14:57:35;17.20;1.00
19025;DHT22;9645;51.448;6.260;2024-03-17T15:00:06;16.80;1.00
19025;DHT22;9645;51.448;6.260;2024-03-17T15:02:40;16.50;1.00
19025;DHT22;9645;51.448;6.260;2024-03-17T15:05:08;16.30;1.00
19025;DHT22;9645;51.448;6.260;2024-03-17T15:07:35;16.10;1.00
19025;DHT22;9645;51.448;6.260;2024-03-17T15:10:03;16.00;1.00
19025;DHT22;9645;51.448;6.260;2024-03-17T15:12:31;15.80;1.00
19025;DHT22;9645;51.448;6.260;2024-03-17T15:14:58;15.80;1.00
19025;DHT22;9645;51.448;6.260;2024-03-17T15:17:25;15.90;1.00
19025;DHT22;9645;51.448;6.260;2024-03-17T15:19:54;15.90;1.00
19025;DHT22;9645;51.448;6.260;2024-03-17T15:22:22;15.90;1.00
19025;DHT22;9645;51.448;6.260;2024-03-17T15:24:49;15.80;1.00
19025;DHT22;9645;51.448;6.260;2024-03-17T15:27:16;15.80;1.00
19025;DHT22;9645;51.448;6.260;2024-03-17T15:29:47;15.70;1.00
19025;DHT22;9645;51.448;6.260;2024-03-17T15:32:14;15.70;1.00
19025;DHT22;9645;51.448;6.260;2024-03-17T15:34:43;15.90;1.00
19025;DHT22;9645;51.448;6.260;2024-03-17T15:37:12;15.60;1.00
19025;DHT22;9645;51.448;6.260;2024-03-17T15:39:39;15.50;1.00
19025;DHT22;9645;51.448;6.260;2024-03-17T15:42:06;15.40;1.00
19025;DHT22;9645;51.448;6.260;2024-03-17T15:44:35;15.40;1.00
19025;DHT22;9645;51.448;6.260;2024-03-17T15:47:02;15.40;1.00
19025;DHT22;9645;51.448;6.260;2024-03-17T15:49:29;15.40;1.00
19025;DHT22;9645;51.448;6.260;2024-03-17T15:51:57;15.40;1.00
19025;DHT22;9645;51.448;6.260;2024-03-17T15:54:24;15.30;1.00
19025;DHT22;9645;51.448;6.260;2024-03-17T15:56:54;15.20;1.00
19025;DHT22;9645;51.448;6.260;2024-03-17T15:59:22;15.00;1.00
19025;DHT22;9645;51.448;6.260;2024-03-17T16:01:49;14.90;1.00
19025;DHT22;9645;51.448;6.260;2024-03-17T16:04:17;14.80;1.00
19025;DHT22;9645;51.448;6.260;2024-03-17T16:06:46;14.60;1.00
19025;DHT22;9645;51.448;6.260;2024-03-17T16:09:14;14.50;1.00
19025;DHT22;9645;51.448;6.260;2024-03-17T16:11:48;14.40;1.00
19025;DHT22;9645;51.448;6.260;2024-03-17T16:14:21;14.30;99.90
19025;DHT22;9645;51.448;6.260;2024-03-17T16:16:50;14.40;77.10
19025;DHT22;9645;51.448;6.260;2024-03-17T16:19:18;14.30;1.00